Time;durP1;ratioP1;P1;durP2;ratioP2;P2;SDS_P1;SDS_P2;PMS_P1;PMS_P2;Temp;Humidity;BMP_temperature;BMP_pressure;BME280_temperature;BME280_humidity;BME280_pressure;Samples;Min_cycle;Max_cycle;Signal;HPM_P1;HPM_P2
2021/12/21 00:00:56;;;;;;;25.33;10.27;;;;;;;-0.25;100.00;102942.50;5110833;28;20055;-77
2021/12/21 00:03:21;;;;;;;22.63;9.60;;;;;;;-0.30;100.00;102949.78;5090374;28;20023;-78
2021/12/21 00:05:47;;;;;;;23.05;10.80;;;;;;;-0.07;100.00;102946.81;5103696;28;20042;-79
2021/12/21 00:08:16;;;;;;;27.75;10.18;;;;;;;-0.23;100.00;102936.69;5111033;28;20389;-79
2021/12/21 00:10:48;;;;;;;25.92;10.18;;;;;;;-0.28;100.00;102955.16;5110939;28;20539;-78
2021/12/21 00:13:40;;;;;;;24.30;10.85;;;;;;;-0.28;100.00;102957.72;5097445;28;20479;-78
2021/12/21 00:21:13;;;;;;;29.98;10.40;;;;;;;-0.41;100.00;102956.53;5100334;28;20036;-79
2021/12/21 00:23:45;;;;;;;23.27;9.60;;;;;;;-0.42;100.00;102949.56;5110672;28;20031;-79
2021/12/21 00:26:13;;;;;;;30.30;10.70;;;;;;;-0.31;100.00;102952.25;5080045;28;20027;-78
2021/12/21 00:29:02;;;;;;;32.85;10.73;;;;;;;-0.37;100.00;102950.94;5112326;28;20387;-79
2021/12/21 00:31:30;;;;;;;27.27;10.05;;;;;;;-0.38;100.00;102950.75;5088003;28;20093;-78
2021/12/21 00:33:55;;;;;;;18.15;11.00;;;;;;;-0.33;100.00;102944.34;5107797;28;20028;-80
2021/12/21 00:36:24;;;;;;;31.00;12.02;;;;;;;-0.40;100.00;102937.66;5092694;28;20360;-79
2021/12/21 00:38:51;;;;;;;28.40;10.30;;;;;;;-0.36;100.00;102942.38;5084896;28;20119;-79
2021/12/21 00:41:18;;;;;;;22.92;10.25;;;;;;;-0.27;100.00;102933.66;5104561;28;20031;-79
2021/12/21 00:43:43;;;;;;;26.52;12.30;;;;;;;-0.20;100.00;102931.81;5093882;28;20023;-80
2021/12/21 00:46:09;;;;;;;22.00;10.68;;;;;;;-0.29;100.00;102924.84;5083797;28;20387;-80
2021/12/21 00:48:36;;;;;;;28.73;9.68;;;;;;;-0.37;100.00;102932.81;5103599;28;20057;-79
2021/12/21 00:51:07;;;;;;;24.55;11.40;;;;;;;-0.36;100.00;102929.44;5071282;28;20066;-79
2021/12/21 00:53:36;;;;;;;21.08;9.70;;;;;;;-0.46;100.00;102931.94;5087190;28;20386;-78
2021/12/21 00:56:04;;;;;;;26.55;9.63;;;;;;;-0.52;100.00;102927.09;5106672;28;20027;-79
2021/12/21 00:58:29;;;;;;;21.05;9.20;;;;;;;-0.58;100.00;102920.44;5078893;28;20119;-80
2021/12/21 01:00:56;;;;;;;25.77;9.90;;;;;;;-0.68;100.00;102929.88;5097128;28;20117;-79
2021/12/21 01:03:22;;;;;;;26.95;10.50;;;;;;;-0.74;100.00;102918.94;5096903;28;20023;-78
2021/12/21 01:06:01;;;;;;;28.77;10.32;;;;;;;-0.78;100.00;102922.00;5090442;28;20039;-78
2021/12/21 01:08:30;;;;;;;22.45;10.15;;;;;;;-0.61;100.00;102925.28;5106165;28;20032;-78
2021/12/21 01:11:06;;;;;;;20.00;9.57;;;;;;;-0.65;100.00;102916.34;5096299;28;20039;-78
2021/12/21 01:13:51;;;;;;;21.30;9.70;;;;;;;-0.72;100.00;102916.50;5089828;28;20034;-79
2021/12/21 01:16:23;;;;;;;27.88;10.25;;;;;;;-0.63;100.00;102911.31;5089325;28;20024;-80
2021/12/21 01:19:11;;;;;;;35.88;10.40;;;;;;;-0.55;100.00;102916.44;5109145;28;20027;-78
2021/12/21 01:21:47;;;;;;;25.20;10.57;;;;;;;-0.52;100.00;102911.59;5105175;28;20115;-79
2021/12/21 01:24:42;;;;;;;28.27;10.30;;;;;;;-0.70;100.00;102907.22;5118559;28;20051;-79
2021/12/21 01:30:09;;;;;;;19.23;9.75;;;;;;;-0.85;100.00;102907.56;5111716;28;20217;-79
2021/12/21 01:32:54;;;;;;;31.63;11.02;;;;;;;-0.78;100.00;102903.91;5106122;28;20042;-79
2021/12/21 01:35:39;;;;;;;28.48;10.20;;;;;;;-0.81;100.00;102905.28;5116482;28;20469;-80
2021/12/21 01:38:18;;;;;;;27.60;10.00;;;;;;;-0.79;100.00;102906.34;5104940;28;20066;-80
2021/12/21 01:43:24;;;;;;;32.33;11.18;;;;;;;-0.70;100.00;102904.66;5099473;28;20127;-80
2021/12/21 01:51:25;;;;;;;30.13;9.77;;;;;;;-0.82;100.00;102904.38;5110172;28;20042;-79
2021/12/21 01:53:53;;;;;;;25.63;10.27;;;;;;;-0.79;100.00;102899.50;5088926;28;20636;-80
2021/12/21 01:56:19;;;;;;;24.45;9.98;;;;;;;-0.89;100.00;102897.72;5108440;28;20396;-80
2021/12/21 01:58:45;;;;;;;29.35;9.88;;;;;;;-0.90;100.00;102893.28;5114821;28;20043;-78
2021/12/21 02:01:15;;;;;;;26.00;10.15;;;;;;;-0.92;100.00;102896.53;5089576;28;20484;-80
2021/12/21 02:03:47;;;;;;;22.83;8.95;;;;;;;-0.92;100.00;102891.34;5115706;28;20031;-79
2021/12/21 02:06:15;;;;;;;19.80;9.10;;;;;;;-1.00;100.00;102887.09;5095222;28;20110;-80
2021/12/21 02:08:42;;;;;;;31.05;8.93;;;;;;;-1.02;100.00;102890.47;5093070;28;20028;-79
2021/12/21 02:11:07;;;;;;;23.80;10.00;;;;;;;-1.00;100.00;102882.84;5089044;28;20039;-79
2021/12/21 02:13:36;;;;;;;19.83;9.57;;;;;;;-0.94;100.00;102887.69;5091768;28;20027;-79
2021/12/21 02:16:05;;;;;;;18.30;8.65;;;;;;;-0.94;100.00;102887.69;5116738;28;20015;-79
2021/12/21 02:18:39;;;;;;;20.73;9.40;;;;;;;-0.93;100.00;102889.53;5096231;28;20024;-79
2021/12/21 02:23:51;;;;;;;18.48;9.18;;;;;;;-0.98;100.00;102881.31;5108307;28;20066;-80
2021/12/21 02:29:08;;;;;;;17.75;8.98;;;;;;;-1.03;100.00;102880.00;5111099;28;20148;-79
2021/12/21 02:31:32;;;;;;;26.88;10.77;;;;;;;-0.92;100.00;102886.19;5110573;28;20096;-79
2021/12/21 02:33:57;;;;;;;20.27;8.70;;;;;;;-0.89;100.00;102883.88;5096880;28;20395;-79
2021/12/21 02:36:23;;;;;;;18.80;8.93;;;;;;;-1.04;100.00;102880.75;5109444;28;20677;-79
2021/12/21 02:38:48;;;;;;;19.15;8.73;;;;;;;-1.10;100.00;102882.72;5114367;28;20055;-79
2021/12/21 02:41:14;;;;;;;22.58;8.65;;;;;;;-1.16;100.00;102880.47;5092800;28;20395;-80
2021/12/21 02:43:39;;;;;;;19.63;8.23;;;;;;;-1.22;100.00;102891.09;5085879;28;20379;-79
2021/12/21 02:46:06;;;;;;;19.88;7.82;;;;;;;-1.22;100.00;102882.44;5085820;28;20429;-79
2021/12/21 02:48:31;;;;;;;19.30;8.85;;;;;;;-1.21;100.00;102886.84;5092145;28;20036;-79
2021/12/21 02:50:57;;;;;;;27.15;9.93;;;;;;;-1.25;100.00;102885.66;5083397;28;20024;-78
2021/12/21 02:53:22;;;;;;;20.20;9.77;;;;;;;-1.30;100.00;102885.94;5086331;28;20479;-79
2021/12/21 02:55:48;;;;;;;18.95;8.57;;;;;;;-1.31;100.00;102885.03;5098532;28;20024;-80
2021/12/21 02:58:13;;;;;;;19.10;9.45;;;;;;;-1.34;100.00;102883.81;5105316;28;20051;-80
2021/12/21 03:00:39;;;;;;;17.33;8.45;;;;;;;-1.32;100.00;102885.78;5079686;28;20118;-79
2021/12/21 03:03:11;;;;;;;30.20;8.52;;;;;;;-1.33;100.00;102886.53;5097145;28;20045;-80
2021/12/21 03:05:39;;;;;;;19.30;8.60;;;;;;;-1.26;100.00;102889.00;5106754;28;20357;-79
2021/12/21 03:08:17;;;;;;;15.93;7.80;;;;;;;-1.29;100.00;102885.19;5108081;28;20133;-79
2021/12/21 03:10:59;;;;;;;13.25;8.32;;;;;;;-1.19;100.00;102887.91;5097820;28;20024;-79
2021/12/21 03:16:08;;;;;;;17.38;8.85;;;;;;;-1.41;100.00;102885.81;5106442;28;20046;-80
2021/12/21 03:18:33;;;;;;;26.95;8.90;;;;;;;-1.34;100.00;102883.81;5098859;28;20466;-79
2021/12/21 03:20:59;;;;;;;22.02;8.60;;;;;;;-1.33;100.00;102878.81;5116049;28;20050;-80
2021/12/21 03:23:24;;;;;;;23.67;9.45;;;;;;;-1.28;100.00;102887.03;5097150;28;20092;-79
2021/12/21 03:25:49;;;;;;;20.42;8.75;;;;;;;-1.39;100.00;102884.28;5115726;28;20032;-79
2021/12/21 03:28:15;;;;;;;18.33;8.50;;;;;;;-1.46;100.00;102881.88;5092752;28;20032;-80
2021/12/21 03:30:40;;;;;;;21.75;8.82;;;;;;;-1.32;100.00;102879.72;5112634;28;20080;-79
2021/12/21 03:33:05;;;;;;;16.13;8.52;;;;;;;-1.33;100.00;102875.31;5089898;28;20032;-79
2021/12/21 03:35:31;;;;;;;19.08;8.45;;;;;;;-1.28;100.00;102869.84;5112229;28;20047;-80
2021/12/21 03:37:56;;;;;;;18.58;8.70;;;;;;;-1.29;100.00;102873.22;5115270;28;20052;-79
2021/12/21 03:40:22;;;;;;;18.08;8.00;;;;;;;-1.34;100.00;102873.50;5100300;28;20451;-80
2021/12/21 03:42:47;;;;;;;25.80;9.02;;;;;;;-1.40;100.00;102869.56;5092279;28;20027;-80
2021/12/21 03:45:13;;;;;;;16.83;7.97;;;;;;;-1.47;100.00;102874.88;5085596;28;20028;-80
2021/12/21 03:47:40;;;;;;;18.83;9.80;;;;;;;-1.31;100.00;102873.81;5083643;28;20043;-80
2021/12/21 03:50:14;;;;;;;21.90;8.60;;;;;;;-1.36;100.00;102868.19;5089778;28;20012;-79
2021/12/21 03:52:39;;;;;;;30.30;9.32;;;;;;;-1.47;100.00;102872.28;5099171;28;20039;-80
2021/12/21 03:55:05;;;;;;;22.42;8.55;;;;;;;-1.51;100.00;102870.19;5087304;28;20395;-80
2021/12/21 03:57:33;;;;;;;20.88;8.77;;;;;;;-1.57;100.00;102864.44;5113615;28;20023;-80
2021/12/21 03:59:58;;;;;;;21.38;8.38;;;;;;;-1.53;100.00;102866.56;5085469;28;20053;-79
2021/12/21 04:02:25;;;;;;;14.35;8.18;;;;;;;-1.59;100.00;102858.19;5078968;28;20052;-81
2021/12/21 04:04:53;;;;;;;18.13;7.88;;;;;;;-1.67;100.00;102859.09;5096161;28;20032;-80
2021/12/21 04:07:19;;;;;;;19.40;8.95;;;;;;;-1.51;100.00;102856.38;5092915;28;20104;-80
2021/12/21 04:09:45;;;;;;;20.45;8.98;;;;;;;-1.65;100.00;102849.84;5114244;28;20047;-80
2021/12/21 04:12:10;;;;;;;18.02;8.13;;;;;;;-1.71;100.00;102855.28;5109830;28;20386;-80
2021/12/21 04:14:37;;;;;;;15.25;7.88;;;;;;;-1.77;100.00;102855.63;5116046;28;20405;-80
2021/12/21 04:17:03;;;;;;;15.45;7.15;;;;;;;-1.85;100.00;102848.78;5094285;28;20099;-79
2021/12/21 04:19:28;;;;;;;20.73;8.95;;;;;;;-1.82;100.00;102850.75;5103181;28;20055;-79
2021/12/21 04:21:54;;;;;;;17.75;8.80;;;;;;;-1.74;100.00;102845.59;5089815;28;20031;-80
2021/12/21 04:24:19;;;;;;;19.67;8.35;;;;;;;-1.81;100.00;102840.59;5081506;28;20027;-81
2021/12/21 04:26:47;;;;;;;21.42;8.15;;;;;;;-1.83;100.00;102833.44;5105055;28;20103;-81
2021/12/21 04:29:12;;;;;;;15.27;7.30;;;;;;;-1.85;100.00;102834.97;5088495;28;20443;-78
2021/12/21 04:31:38;;;;;;;22.10;8.23;;;;;;;-1.80;100.00;102838.94;5091662;28;20026;-79
2021/12/21 04:34:03;;;;;;;14.68;7.57;;;;;;;-1.86;100.00;102828.88;5114050;28;20097;-80
2021/12/21 04:36:30;;;;;;;15.40;8.05;;;;;;;-1.88;100.00;102845.91;5097508;28;20054;-80
2021/12/21 04:38:57;;;;;;;15.57;8.45;;;;;;;-1.89;100.00;102844.06;5092072;28;20052;-80
2021/12/21 04:41:26;;;;;;;21.23;8.75;;;;;;;-1.91;100.00;102841.34;5085768;28;20028;-80
2021/12/21 04:43:55;;;;;;;14.45;7.55;;;;;;;-1.91;100.00;102848.19;5078616;28;20020;-80
2021/12/21 04:46:26;;;;;;;22.48;8.55;;;;;;;-1.99;100.00;102843.91;5089485;28;20012;-80
2021/12/21 04:48:52;;;;;;;20.80;8.95;;;;;;;-1.74;100.00;102844.69;5099322;28;20024;-81
2021/12/21 04:51:18;;;;;;;18.35;7.90;;;;;;;-1.87;100.00;102845.16;5104388;28;20038;-80
2021/12/21 04:53:44;;;;;;;14.15;7.95;;;;;;;-1.90;100.00;102840.59;5089691;28;20224;-81
2021/12/21 04:56:09;;;;;;;14.60;7.65;;;;;;;-1.98;100.00;102843.16;5112255;28;20023;-80
2021/12/21 04:58:37;;;;;;;17.23;7.57;;;;;;;-2.01;100.00;102841.19;5087862;28;20020;-81
2021/12/21 05:01:04;;;;;;;16.55;7.57;;;;;;;-1.88;100.00;102836.47;5090601;28;20122;-81
2021/12/21 05:03:29;;;;;;;20.52;8.23;;;;;;;-1.86;100.00;102844.38;5116989;28;20468;-81
2021/12/21 05:05:56;;;;;;;15.50;7.78;;;;;;;-1.92;100.00;102841.19;5095911;28;20047;-80
2021/12/21 05:08:25;;;;;;;17.85;7.88;;;;;;;-1.94;100.00;102834.97;5098327;28;20055;-79
2021/12/21 05:10:56;;;;;;;18.38;8.82;;;;;;;-2.00;100.00;102834.38;5095558;28;20123;-81
2021/12/21 05:13:24;;;;;;;20.60;8.07;;;;;;;-2.06;100.00;102837.25;5087626;28;20011;-79
2021/12/21 05:15:50;;;;;;;19.52;8.57;;;;;;;-2.11;100.00;102836.78;5082995;28;20020;-80
2021/12/21 05:18:16;;;;;;;17.58;8.63;;;;;;;-2.14;100.00;102838.13;5090831;28;20027;-81
2021/12/21 05:20:43;;;;;;;14.70;8.57;;;;;;;-1.98;100.00;102827.69;5100882;28;20063;-81
2021/12/21 05:23:10;;;;;;;17.35;7.70;;;;;;;-2.08;100.00;102831.91;5108741;28;20036;-80
2021/12/21 05:25:37;;;;;;;18.33;8.48;;;;;;;-2.12;100.00;102834.94;5096667;28;20007;-81
2021/12/21 05:28:13;;;;;;;20.25;9.68;;;;;;;-1.97;100.00;102834.66;5111250;28;20094;-81
2021/12/21 05:30:39;;;;;;;20.27;9.38;;;;;;;-1.87;100.00;102837.41;5082297;28;20463;-80
2021/12/21 05:33:05;;;;;;;12.90;7.88;;;;;;;-1.93;100.00;102831.63;5078542;28;20032;-80
2021/12/21 05:35:32;;;;;;;14.90;7.88;;;;;;;-2.05;100.00;102827.09;5101325;28;20107;-80
2021/12/21 05:38:02;;;;;;;24.88;9.65;;;;;;;-2.11;100.00;102825.56;5103612;28;20087;-81
2021/12/21 05:40:37;;;;;;;17.73;8.90;;;;;;;-2.16;100.00;102831.94;5089131;28;20023;-80
2021/12/21 05:43:05;;;;;;;21.13;9.98;;;;;;;-2.16;100.00;102830.25;5096369;28;20020;-80
2021/12/21 05:45:31;;;;;;;19.00;9.77;;;;;;;-2.09;100.00;102830.13;5115625;28;20540;-81
2021/12/21 05:47:56;;;;;;;26.17;9.40;;;;;;;-2.17;100.00;102830.09;5112732;28;20102;-79
2021/12/21 05:50:23;;;;;;;21.77;10.18;;;;;;;-2.22;100.00;102835.69;5115639;28;20031;-80
2021/12/21 05:52:49;;;;;;;24.67;10.57;;;;;;;-2.18;100.00;102833.41;5098074;28;20023;-80
2021/12/21 05:55:19;;;;;;;21.85;10.95;;;;;;;-2.15;100.00;102839.81;5100115;28;20050;-80
2021/12/21 05:57:45;;;;;;;28.75;11.15;;;;;;;-2.12;100.00;102840.09;5097909;28;20495;-79
2021/12/21 06:00:16;;;;;;;29.77;11.98;;;;;;;-2.08;100.00;102834.50;5096321;28;20031;-80
2021/12/21 06:02:43;;;;;;;20.15;9.30;;;;;;;-2.07;100.00;102844.06;5081783;28;20081;-79
2021/12/21 06:05:09;;;;;;;23.35;10.95;;;;;;;-2.01;100.00;102846.34;5099407;28;20028;-79
2021/12/21 06:07:35;;;;;;;31.63;10.57;;;;;;;-2.04;100.00;102844.34;5083851;28;20479;-81
2021/12/21 06:10:11;;;;;;;20.35;9.85;;;;;;;-2.07;100.00;102848.31;5105736;28;20034;-79
2021/12/21 06:26:01;;;;;;;27.20;12.60;;;;;;;-1.99;100.00;102841.31;5111037;28;20065;-80
2021/12/21 06:28:29;;;;;;;27.45;11.50;;;;;;;-2.19;100.00;102842.84;5107668;28;20039;-81
2021/12/21 06:30:55;;;;;;;23.95;11.20;;;;;;;-2.17;100.00;102838.75;5084035;28;20023;-79
2021/12/21 06:33:21;;;;;;;28.25;12.90;;;;;;;-2.31;100.00;102842.50;5101752;28;20036;-80
2021/12/21 06:35:46;;;;;;;22.15;11.68;;;;;;;-2.35;100.00;102834.31;5088154;28;20024;-79
2021/12/21 06:38:12;;;;;;;27.98;11.35;;;;;;;-2.41;100.00;102834.63;5105866;28;20040;-77
2021/12/21 06:40:39;;;;;;;24.10;12.18;;;;;;;-2.33;100.00;102837.94;5114671;28;20446;-77
2021/12/21 06:43:10;;;;;;;24.33;12.18;;;;;;;-2.41;100.00;102838.09;5106826;28;20039;-77
2021/12/21 06:53:31;;;;;;;30.25;12.35;;;;;;;-2.46;100.00;102841.88;5105269;28;20081;-76
2021/12/21 06:55:59;;;;;;;36.50;12.48;;;;;;;-2.50;100.00;102839.75;5108383;28;20027;-77
2021/12/21 06:58:25;;;;;;;24.25;12.02;;;;;;;-2.52;100.00;102830.97;5105275;28;20468;-78
2021/12/21 07:00:52;;;;;;;32.40;13.88;;;;;;;-2.40;100.00;102836.41;5104412;28;20058;-78
2021/12/21 07:03:21;;;;;;;31.55;14.15;;;;;;;-2.31;100.00;102841.63;5114875;28;20030;-78
2021/12/21 07:05:47;;;;;;;40.47;15.10;;;;;;;-2.28;100.00;102837.69;5091871;28;20399;-77
2021/12/21 07:08:16;;;;;;;21.58;12.00;;;;;;;-2.40;100.00;102826.09;5087898;28;20124;-78
2021/12/21 07:19:02;;;;;;;24.67;12.57;;;;;;;-2.54;100.00;102845.34;5090767;28;20147;-79
2021/12/21 07:21:28;;;;;;;27.38;12.82;;;;;;;-2.58;100.00;102835.47;5078973;28;20035;-78
2021/12/21 07:23:53;;;;;;;23.88;12.88;;;;;;;-2.59;100.00;102839.72;5087373;28;20036;-78
2021/12/21 07:26:19;;;;;;;33.22;13.30;;;;;;;-2.58;100.00;102845.78;5114525;28;20035;-79
2021/12/21 07:28:44;;;;;;;36.88;13.68;;;;;;;-2.53;100.00;102854.91;5100668;28;20032;-78
2021/12/21 07:31:10;;;;;;;26.85;13.35;;;;;;;-2.58;100.00;102850.94;5099938;28;20028;-77
2021/12/21 07:33:35;;;;;;;28.17;12.20;;;;;;;-2.64;100.00;102848.66;5086553;28;20040;-75
2021/12/21 07:36:01;;;;;;;30.80;13.45;;;;;;;-2.54;100.00;102858.22;5086443;28;20027;-77
2021/12/21 07:38:30;;;;;;;31.88;12.60;;;;;;;-2.57;100.00;102852.75;5114229;28;20090;-78
2021/12/21 07:41:00;;;;;;;29.85;12.95;;;;;;;-2.64;100.00;102850.31;5108745;28;20039;-77
2021/12/21 07:43:26;;;;;;;25.88;13.23;;;;;;;-2.67;100.00;102840.63;5095819;28;20031;-75
2021/12/21 07:45:56;;;;;;;32.25;13.60;;;;;;;-2.70;100.00;102848.00;5104571;28;20028;-78
2021/12/21 07:48:22;;;;;;;24.08;12.30;;;;;;;-2.74;100.00;102851.03;5100192;28;20019;-78
2021/12/21 07:50:50;;;;;;;25.27;12.75;;;;;;;-2.68;100.00;102843.03;5089664;28;20033;-78
2021/12/21 07:53:21;;;;;;;25.50;12.80;;;;;;;-2.55;100.00;102846.09;5107687;28;20087;-79
2021/12/21 07:55:47;;;;;;;25.70;13.68;;;;;;;-2.37;100.00;102852.22;5086600;28;20415;-77
2021/12/21 07:58:13;;;;;;;23.83;13.50;;;;;;;-2.48;100.00;102857.94;5100599;28;20111;-77
2021/12/21 08:00:41;;;;;;;31.33;13.38;;;;;;;-2.53;100.00;102854.91;5100569;28;20425;-76
2021/12/21 08:03:07;;;;;;;25.02;12.77;;;;;;;-2.59;100.00;102852.63;5082155;28;20044;-77
2021/12/21 08:05:34;;;;;;;19.60;12.00;;;;;;;-2.63;100.00;102857.28;5080256;28;20694;-78
2021/12/21 08:08:18;;;;;;;28.60;13.82;;;;;;;-2.66;100.00;102851.81;5103425;28;20024;-79
2021/12/21 08:13:32;;;;;;;20.92;13.27;;;;;;;-2.60;100.00;102860.19;5047076;28;20033;-78
2021/12/21 08:15:57;;;;;;;30.25;14.10;;;;;;;-2.46;100.00;102865.06;5086486;28;20042;-77
2021/12/21 08:18:23;;;;;;;34.08;14.43;;;;;;;-2.52;100.00;102871.25;5097582;28;20024;-77
2021/12/21 08:20:49;;;;;;;37.90;13.73;;;;;;;-2.55;100.00;102877.94;5084113;28;20060;-76
2021/12/21 08:23:15;;;;;;;24.38;12.93;;;;;;;-2.56;100.00;102883.84;5079519;28;20095;-75
2021/12/21 08:25:41;;;;;;;25.48;13.63;;;;;;;-2.55;100.00;102889.91;5106015;28;20032;-77
2021/12/21 08:28:18;;;;;;;26.88;13.13;;;;;;;-2.54;100.00;102889.16;5100087;28;20040;-75
2021/12/21 08:30:50;;;;;;;25.73;13.20;;;;;;;-2.59;100.00;102892.91;5080383;28;20081;-76
2021/12/21 08:33:16;;;;;;;31.40;12.30;;;;;;;-2.60;100.00;102894.59;5084209;28;20467;-77
2021/12/21 08:35:41;;;;;;;26.60;13.82;;;;;;;-2.46;100.00;102902.84;5082322;28;20031;-77
2021/12/21 08:38:13;;;;;;;27.05;13.20;;;;;;;-2.49;100.00;102905.09;5082082;28;20078;-77
2021/12/21 08:40:40;;;;;;;39.15;14.43;;;;;;;-2.49;100.00;102898.28;5085611;28;20031;-77
2021/12/21 08:43:11;;;;;;;28.70;12.77;;;;;;;-2.47;100.00;102899.38;5089734;28;20032;-76
2021/12/21 08:45:39;;;;;;;25.33;12.85;;;;;;;-2.45;100.00;102894.34;5084540;28;20037;-76
2021/12/21 08:48:06;;;;;;;32.80;13.40;;;;;;;-2.39;100.00;102895.91;5088926;28;20035;-77
2021/12/21 08:50:33;;;;;;;29.02;12.52;;;;;;;-2.39;100.00;102890.75;5084988;28;20074;-77
2021/12/21 08:53:23;;;;;;;22.48;11.95;;;;;;;-2.33;100.00;102884.34;5080298;28;20101;-76
2021/12/21 08:55:51;;;;;;;23.70;12.93;;;;;;;-2.33;100.00;102882.72;5082738;28;20047;-77
2021/12/21 08:58:17;;;;;;;26.65;12.70;;;;;;;-2.31;100.00;102882.88;5084599;28;20025;-75
2021/12/21 09:00:44;;;;;;;27.55;12.77;;;;;;;-2.19;100.00;102889.25;5082540;28;20035;-77
2021/12/21 09:03:11;;;;;;;25.65;12.95;;;;;;;-2.18;100.00;102885.94;5085997;28;20050;-76
2021/12/21 09:05:40;;;;;;;24.85;13.85;;;;;;;-2.18;100.00;102891.09;5084859;28;20403;-77
2021/12/21 09:08:06;;;;;;;27.08;13.77;;;;;;;-2.17;100.00;102877.44;5083649;28;20044;-75
2021/12/21 09:10:33;;;;;;;30.10;14.63;;;;;;;-2.14;100.00;102881.97;5089068;28;20495;-78
2021/12/21 09:13:00;;;;;;;35.47;15.75;;;;;;;-2.05;100.00;102883.84;5085069;28;20035;-77
2021/12/21 09:15:27;;;;;;;26.42;15.18;;;;;;;-1.98;100.00;102889.59;5078900;28;20065;-77
2021/12/21 09:17:54;;;;;;;30.60;14.75;;;;;;;-1.96;100.00;102893.25;5082149;28;20132;-77
2021/12/21 09:20:22;;;;;;;27.23;14.55;;;;;;;-1.93;100.00;102885.81;5085962;28;20386;-78
2021/12/21 09:22:49;;;;;;;27.10;15.70;;;;;;;-1.85;100.00;102890.06;5091303;28;20119;-77
2021/12/21 09:25:15;;;;;;;34.38;15.00;;;;;;;-1.75;100.00;102879.91;5090357;28;20040;-76
2021/12/21 09:27:42;;;;;;;28.17;14.98;;;;;;;-1.68;100.00;102885.66;5080411;28;20112;-78
2021/12/21 09:30:12;;;;;;;24.73;14.75;;;;;;;-1.65;100.00;102884.31;5085112;28;20027;-76
2021/12/21 09:32:38;;;;;;;29.73;15.98;;;;;;;-1.54;100.00;102885.38;5084751;28;20036;-76
2021/12/21 09:35:04;;;;;;;35.00;16.00;;;;;;;-1.44;100.00;102875.19;5088782;28;20084;-76
2021/12/21 09:37:31;;;;;;;30.13;16.67;;;;;;;-1.32;100.00;102877.16;5096596;28;20197;-77
2021/12/21 09:39:58;;;;;;;26.02;15.05;;;;;;;-1.18;100.00;102869.09;5106653;28;20039;-77
2021/12/21 09:42:30;;;;;;;25.80;13.80;;;;;;;-0.93;100.00;102871.44;5106532;28;20028;-78
2021/12/21 09:44:57;;;;;;;24.77;13.10;;;;;;;-0.55;100.00;102871.59;5094247;28;20042;-76
2021/12/21 09:47:22;;;;;;;21.13;12.43;;;;;;;-0.21;100.00;102880.81;5082911;28;20476;-77
2021/12/21 09:49:49;;;;;;;21.50;12.52;;;;;;;0.21;100.00;102869.09;5100618;28;20063;-77
2021/12/21 09:52:22;;;;;;;25.65;11.65;;;;;;;0.58;100.00;102869.84;5089912;28;20165;-79
2021/12/21 09:54:48;;;;;;;21.33;11.88;;;;;;;0.82;100.00;102862.44;5093289;28;20032;-78
2021/12/21 09:57:16;;;;;;;23.80;10.40;;;;;;;0.94;99.83;102858.34;5105397;28;20100;-79
2021/12/21 09:59:48;;;;;;;23.13;10.98;;;;;;;1.35;99.72;102863.63;5112928;28;20023;-78
2021/12/21 10:02:26;;;;;;;19.77;10.63;;;;;;;1.63;98.42;102863.44;5101482;28;20028;-80
2021/12/21 10:05:19;;;;;;;20.35;10.15;;;;;;;1.63;97.90;102868.63;5086553;28;20043;-80
2021/12/21 10:07:56;;;;;;;23.10;11.02;;;;;;;1.76;97.80;102872.25;5095419;28;20048;-81
2021/12/21 10:10:22;;;;;;;22.13;11.43;;;;;;;1.99;97.10;102872.53;5087812;28;20019;-80
2021/12/21 10:12:49;;;;;;;19.77;10.95;;;;;;;2.00;96.12;102858.75;5108654;28;20028;-80
2021/12/21 10:15:23;;;;;;;21.35;10.27;;;;;;;2.20;94.91;102864.72;5083213;28;20023;-78
2021/12/21 10:17:49;;;;;;;20.90;10.30;;;;;;;2.63;93.20;102857.88;5102130;28;20081;-82
2021/12/21 10:20:30;;;;;;;15.50;9.45;;;;;;;2.90;91.64;102858.25;5111706;28;20035;-80
2021/12/21 10:22:56;;;;;;;20.80;9.80;;;;;;;3.18;91.68;102847.47;5090533;28;20089;-80
2021/12/21 10:25:24;;;;;;;18.58;9.75;;;;;;;3.60;87.33;102836.00;5108674;28;20019;-79
2021/12/21 10:27:50;;;;;;;18.05;9.88;;;;;;;3.77;89.18;102836.38;5116355;28;20032;-76
2021/12/21 10:30:15;;;;;;;17.23;9.68;;;;;;;4.12;86.15;102828.63;5106222;28;20360;-77
2021/12/21 10:32:55;;;;;;;18.95;9.88;;;;;;;4.14;84.63;102820.94;5088902;28;20031;-78
2021/12/21 10:35:31;;;;;;;15.38;9.57;;;;;;;4.19;85.57;102807.47;5098818;28;20030;-82
2021/12/21 10:37:57;;;;;;;18.77;10.02;;;;;;;4.63;83.71;102801.06;5089573;28;20480;-82
2021/12/21 10:40:26;;;;;;;22.95;10.90;;;;;;;4.84;82.52;102800.81;5092855;28;20028;-79
2021/12/21 10:43:00;;;;;;;22.17;9.40;;;;;;;4.83;82.91;102798.97;5094028;28;20035;-80
2021/12/21 10:45:38;;;;;;;19.30;9.73;;;;;;;4.88;84.17;102802.84;5094887;28;20028;-80
2021/12/21 10:48:15;;;;;;;18.30;8.65;;;;;;;5.26;81.59;102793.28;5111798;28;20028;-76
2021/12/21 10:50:42;;;;;;;19.38;9.80;;;;;;;5.82;79.77;102800.59;5103328;28;20060;-77
2021/12/21 10:53:17;;;;;;;18.98;9.43;;;;;;;5.62;79.45;102787.09;5089566;28;20105;-77
2021/12/21 10:55:42;;;;;;;22.42;9.95;;;;;;;5.87;77.84;102788.75;5083851;28;20709;-78
2021/12/21 10:58:18;;;;;;;20.13;10.82;;;;;;;5.76;80.47;102795.88;5084148;28;20026;-76
2021/12/21 11:00:56;;;;;;;23.90;10.88;;;;;;;6.06;78.19;102791.84;5084598;28;20042;-76
2021/12/21 11:03:54;;;;;;;19.13;9.77;;;;;;;6.50;73.11;102778.97;5102827;28;20030;-78
2021/12/21 11:06:25;;;;;;;24.30;9.98;;;;;;;6.69;75.73;102787.19;5086984;28;20023;-79
2021/12/21 11:08:55;;;;;;;24.40;10.45;;;;;;;6.84;74.26;102791.59;5104891;28;20050;-79
2021/12/21 11:11:27;;;;;;;36.53;9.52;;;;;;;6.73;73.78;102788.28;5103062;28;20076;-78
2021/12/21 11:14:14;;;;;;;17.95;9.45;;;;;;;6.75;75.56;102791.88;5091269;28;20019;-77
2021/12/21 11:16:47;;;;;;;18.25;8.65;;;;;;;6.70;72.23;102783.75;5114964;28;20110;-77
2021/12/21 11:19:15;;;;;;;20.80;9.60;;;;;;;7.08;71.47;102777.41;5085572;28;20479;-78
2021/12/21 11:21:42;;;;;;;17.38;9.18;;;;;;;7.05;70.82;102756.28;5092920;28;20019;-77
2021/12/21 11:24:13;;;;;;;21.92;9.52;;;;;;;6.60;74.02;102775.22;5099785;28;20035;-79
2021/12/21 11:26:40;;;;;;;20.30;8.95;;;;;;;7.32;68.61;102758.75;5085691;28;20028;-79
2021/12/21 11:29:09;;;;;;;19.73;9.27;;;;;;;7.83;65.69;102747.81;5084810;28;20035;-78
2021/12/21 11:31:44;;;;;;;19.80;9.88;;;;;;;7.43;70.23;102755.09;5085226;28;20019;-78
2021/12/21 11:34:14;;;;;;;20.30;11.02;;;;;;;7.17;73.33;102774.44;5082266;28;20532;-78
2021/12/21 11:39:33;;;;;;;17.60;9.48;;;;;;;6.83;74.95;102763.59;5111166;28;20169;-78
2021/12/21 11:42:01;;;;;;;19.55;9.65;;;;;;;6.81;74.34;102765.19;5078148;28;20086;-79
2021/12/21 11:44:46;;;;;;;19.15;9.02;;;;;;;6.78;74.74;102750.22;5081978;28;20050;-78
2021/12/21 11:47:17;;;;;;;21.85;8.75;;;;;;;7.08;70.61;102730.28;5109067;28;20103;-79
2021/12/21 11:49:50;;;;;;;21.13;9.57;;;;;;;6.93;73.64;102734.56;5079286;28;20029;-76
2021/12/21 11:52:22;;;;;;;19.98;8.95;;;;;;;6.69;74.34;102739.19;5089993;28;20036;-77
2021/12/21 11:54:54;;;;;;;15.85;8.95;;;;;;;6.77;74.26;102744.88;5090368;28;20023;-78
2021/12/21 11:57:52;;;;;;;17.27;8.73;;;;;;;7.08;72.34;102746.00;5113907;28;20101;-77
2021/12/21 12:00:30;;;;;;;15.73;7.78;;;;;;;7.69;69.89;102739.13;5096543;28;20051;-78
2021/12/21 12:03:09;;;;;;;14.98;7.50;;;;;;;8.29;64.47;102732.09;5091543;28;20426;-78
2021/12/21 12:05:34;;;;;;;13.55;7.40;;;;;;;8.17;65.56;102727.03;5098064;28;20054;-78
2021/12/21 12:08:06;;;;;;;16.98;7.82;;;;;;;7.84;67.03;102721.69;5096401;28;20097;-78
2021/12/21 12:10:37;;;;;;;17.10;7.82;;;;;;;7.69;66.87;102726.94;5096654;28;20051;-78
2021/12/21 12:13:25;;;;;;;13.95;7.68;;;;;;;7.69;68.34;102732.16;5094391;28;20450;-79
2021/12/21 12:16:15;;;;;;;15.80;7.68;;;;;;;7.74;69.09;102722.84;5097528;28;20019;-78
2021/12/21 12:18:50;;;;;;;14.75;7.43;;;;;;;8.07;66.92;102699.41;5092196;28;20047;-79